Time;durP1;ratioP1;P1;durP2;ratioP2;P2;SDS_P1;SDS_P2;PMS_P1;PMS_P2;Temp;Humidity;BMP_temperature;BMP_pressure;BME280_temperature;BME280_humidity;BME280_pressure;Samples;Min_cycle;Max_cycle;Signal;HPM_P1;HPM_P2
2021/04/07 00:00:31;;;;;;;5.03;2.33;;;3.60;99.90;;;;;;5055962;28;20280;-87
2021/04/07 00:02:58;;;;;;;4.40;2.65;;;3.60;99.90;;;;;;5056215;28;20221;-87
2021/04/07 00:05:27;;;;;;;4.32;1.55;;;3.70;99.90;;;;;;5056489;28;20190;-87
2021/04/07 00:07:54;;;;;;;4.90;1.80;;;3.70;99.90;;;;;;5056015;28;20225;-86
2021/04/07 00:10:22;;;;;;;2.95;1.92;;;3.70;99.90;;;;;;5055966;28;20201;-87
2021/04/07 00:12:48;;;;;;;4.68;1.67;;;3.70;99.90;;;;;;5056228;28;20566;-87
2021/04/07 00:15:17;;;;;;;6.60;2.22;;;3.70;99.90;;;;;;5056012;28;20239;-87
2021/04/07 00:17:44;;;;;;;1.75;1.42;;;3.70;99.90;;;;;;5055866;28;20186;-88
2021/04/07 00:20:12;;;;;;;2.90;1.70;;;3.70;99.90;;;;;;5056141;28;20280;-86
2021/04/07 00:22:38;;;;;;;3.00;1.30;;;3.70;99.90;;;;;;5055807;28;20253;-88
2021/04/07 00:25:05;;;;;;;2.58;2.00;;;3.70;99.90;;;;;;5056347;28;20229;-87
2021/04/07 00:27:32;;;;;;;2.95;1.92;;;3.70;99.90;;;;;;5055878;28;20297;-85
2021/04/07 00:29:59;;;;;;;8.32;1.55;;;3.60;99.90;;;;;;5055745;28;20190;-85
2021/04/07 00:32:25;;;;;;;1.80;1.40;;;3.70;99.90;;;;;;5055617;28;20222;-84
2021/04/07 00:34:52;;;;;;;4.38;1.70;;;3.70;99.90;;;;;;5055375;28;20718;-84
2021/04/07 00:37:18;;;;;;;2.90;1.35;;;3.60;99.90;;;;;;5055445;28;20186;-90
2021/04/07 00:39:44;;;;;;;5.13;1.50;;;3.70;99.90;;;;;;5055926;28;20669;-88
2021/04/07 00:42:10;;;;;;;2.20;1.60;;;3.70;99.90;;;;;;5055653;28;20687;-83
2021/04/07 00:44:36;;;;;;;4.03;1.70;;;3.70;99.90;;;;;;5055188;28;20240;-84
2021/04/07 00:47:03;;;;;;;4.57;1.92;;;3.70;99.90;;;;;;5055438;28;20190;-88
2021/04/07 00:49:29;;;;;;;2.42;1.90;;;3.70;99.90;;;;;;5055326;28;20213;-87
2021/04/07 00:51:56;;;;;;;3.10;1.65;;;3.70;99.90;;;;;;5055152;28;20645;-83
2021/04/07 00:54:23;;;;;;;3.85;2.15;;;3.70;99.90;;;;;;5055099;28;20190;-82
2021/04/07 00:56:50;;;;;;;2.30;1.63;;;3.60;99.90;;;;;;5055621;28;20252;-86
2021/04/07 00:59:19;;;;;;;3.92;1.73;;;3.60;99.90;;;;;;5055671;28;20186;-87
2021/04/07 01:01:45;;;;;;;3.88;1.50;;;3.60;99.90;;;;;;5056157;28;20190;-86
2021/04/07 01:04:12;;;;;;;11.75;2.45;;;3.60;99.90;;;;;;5056253;28;20190;-87
2021/04/07 01:06:41;;;;;;;3.65;1.48;;;3.60;99.90;;;;;;5056187;28;20189;-87
2021/04/07 01:09:08;;;;;;;1.80;1.40;;;3.60;99.90;;;;;;5056642;28;20229;-87
2021/04/07 01:11:35;;;;;;;3.78;2.20;;;3.60;99.90;;;;;;5056634;28;20214;-88
2021/04/07 01:14:02;;;;;;;2.78;1.55;;;3.60;99.90;;;;;;5056349;28;20687;-86
2021/04/07 01:16:28;;;;;;;2.97;1.85;;;3.60;99.90;;;;;;5055941;28;20194;-86
2021/04/07 01:18:54;;;;;;;7.45;2.00;;;3.70;99.90;;;;;;5056370;28;20236;-86
2021/04/07 01:21:20;;;;;;;8.60;2.15;;;3.70;99.90;;;;;;5056396;28;20248;-84
2021/04/07 01:23:48;;;;;;;2.13;1.67;;;3.70;99.90;;;;;;5057025;28;20217;-88
2021/04/07 01:26:15;;;;;;;5.38;2.08;;;3.60;99.90;;;;;;5056856;28;20193;-89
2021/04/07 01:28:41;;;;;;;4.35;2.20;;;3.60;99.90;;;;;;5056066;28;20210;-89
2021/04/07 01:31:08;;;;;;;4.75;1.80;;;3.70;99.90;;;;;;5054752;28;20186;-88
2021/04/07 01:33:35;;;;;;;3.13;1.60;;;3.70;99.90;;;;;;5054513;28;20687;-89
2021/04/07 01:36:01;;;;;;;2.65;1.65;;;3.70;99.90;;;;;;5054658;28;20193;-88
2021/04/07 01:38:27;;;;;;;3.55;1.58;;;3.70;99.90;;;;;;5054383;28;20645;-89
2021/04/07 01:40:55;;;;;;;3.83;1.70;;;3.70;99.90;;;;;;5054700;28;20289;-89
2021/04/07 01:43:23;;;;;;;5.20;2.78;;;3.70;99.90;;;;;;5054150;28;20202;-89
2021/04/07 01:45:50;;;;;;;6.55;1.98;;;3.70;99.90;;;;;;5054533;28;20194;-90
2021/04/07 01:48:18;;;;;;;4.80;2.40;;;3.70;99.90;;;;;;5053777;28;20633;-89
2021/04/07 01:50:45;;;;;;;5.40;2.47;;;3.70;99.90;;;;;;5054386;28;20285;-89
2021/04/07 01:53:13;;;;;;;2.25;1.70;;;3.70;99.90;;;;;;5054155;28;20190;-89
2021/04/07 01:55:39;;;;;;;5.05;2.10;;;3.60;99.90;;;;;;5053215;28;20688;-83
2021/04/07 01:58:06;;;;;;;3.67;1.85;;;3.60;99.90;;;;;;5053804;28;20194;-83
2021/04/07 02:00:33;;;;;;;4.38;1.90;;;3.60;99.90;;;;;;5053807;28;20190;-83
2021/04/07 02:03:00;;;;;;;6.65;2.33;;;3.60;99.90;;;;;;5053894;28;20198;-82
2021/04/07 02:05:27;;;;;;;3.88;2.05;;;3.60;99.90;;;;;;5053793;28;20225;-83
2021/04/07 02:07:53;;;;;;;3.75;1.85;;;3.60;99.90;;;;;;5053592;28;20309;-89
2021/04/07 02:10:19;;;;;;;5.28;1.92;;;3.60;99.90;;;;;;5053655;28;20297;-84
2021/04/07 02:12:51;;;;;;;6.32;2.90;;;3.60;99.90;;;;;;5053563;28;20237;-85
2021/04/07 02:15:18;;;;;;;7.22;2.22;;;3.60;99.90;;;;;;5053555;28;20202;-85
2021/04/07 02:17:46;;;;;;;7.93;2.10;;;3.60;99.90;;;;;;5053495;28;20194;-85
2021/04/07 02:20:13;;;;;;;3.35;2.13;;;3.70;99.90;;;;;;5053549;28;20190;-85
2021/04/07 02:22:39;;;;;;;5.10;2.13;;;3.70;99.90;;;;;;5053545;28;20190;-85
2021/04/07 02:25:07;;;;;;;2.35;2.15;;;3.60;99.90;;;;;;5053447;28;20276;-85
2021/04/07 02:27:35;;;;;;;2.25;1.50;;;3.70;99.90;;;;;;5053222;28;20678;-84
2021/04/07 02:30:03;;;;;;;2.95;2.17;;;3.60;99.90;;;;;;5053474;28;20285;-83
2021/04/07 02:32:30;;;;;;;5.22;2.67;;;3.50;99.90;;;;;;5053421;28;20229;-86
2021/04/07 02:34:56;;;;;;;3.90;2.25;;;3.50;99.90;;;;;;5052945;28;20202;-86
2021/04/07 02:37:22;;;;;;;3.60;2.17;;;3.50;99.90;;;;;;5052999;28;20202;-87
2021/04/07 02:39:49;;;;;;;3.95;1.85;;;3.50;99.90;;;;;;5053044;28;20457;-86
2021/04/07 02:42:20;;;;;;;4.35;1.98;;;3.50;99.90;;;;;;5052955;28;20190;-88
2021/04/07 02:44:46;;;;;;;6.63;2.45;;;3.50;99.90;;;;;;5053318;28;20225;-82
2021/04/07 02:47:12;;;;;;;3.17;1.80;;;3.50;99.90;;;;;;5052244;28;20198;-84
2021/04/07 02:49:39;;;;;;;3.97;1.90;;;3.50;99.90;;;;;;5052964;28;20263;-85
2021/04/07 02:52:06;;;;;;;5.53;2.17;;;3.50;99.90;;;;;;5052942;28;20691;-84
2021/04/07 02:54:32;;;;;;;2.75;1.92;;;3.50;99.90;;;;;;5052265;28;20707;-82
2021/04/07 02:56:58;;;;;;;3.13;1.70;;;3.60;99.90;;;;;;5052848;28;20688;-84
2021/04/07 02:59:24;;;;;;;4.80;2.00;;;3.50;99.90;;;;;;5052936;28;20288;-85
2021/04/07 03:01:50;;;;;;;2.05;1.80;;;3.60;99.90;;;;;;5052956;28;20189;-85
2021/04/07 03:04:17;;;;;;;6.22;1.88;;;3.50;99.90;;;;;;5052735;28;20213;-85
2021/04/07 03:06:44;;;;;;;1.95;1.85;;;3.50;99.90;;;;;;5052931;28;20193;-84
2021/04/07 03:09:10;;;;;;;6.82;2.15;;;3.50;99.90;;;;;;5052352;28;20220;-84
2021/04/07 03:11:36;;;;;;;1.98;1.80;;;3.40;99.90;;;;;;5052755;28;20194;-85
2021/04/07 03:14:03;;;;;;;3.65;1.98;;;3.40;99.90;;;;;;5052692;28;20217;-84
2021/04/07 03:16:29;;;;;;;4.00;1.95;;;3.40;99.90;;;;;;5052920;28;20240;-84
2021/04/07 03:18:55;;;;;;;2.60;1.80;;;3.30;99.90;;;;;;5052597;28;20281;-84
2021/04/07 03:21:22;;;;;;;3.00;2.10;;;3.30;99.90;;;;;;5052623;28;20239;-84
2021/04/07 03:23:48;;;;;;;7.35;2.53;;;3.20;99.90;;;;;;5052478;28;20190;-84
2021/04/07 03:26:14;;;;;;;5.65;2.30;;;3.20;99.90;;;;;;5051839;28;20243;-84
2021/04/07 03:28:41;;;;;;;2.40;2.20;;;3.20;99.90;;;;;;5052559;28;20253;-86
2021/04/07 03:31:07;;;;;;;3.33;2.22;;;3.20;99.90;;;;;;5052758;28;20565;-86
2021/04/07 03:33:35;;;;;;;2.83;2.20;;;3.30;99.90;;;;;;5064585;28;20193;-87
2021/04/07 03:36:02;;;;;;;4.40;2.38;;;3.30;99.90;;;;;;5072748;28;20576;-87
2021/04/07 03:38:29;;;;;;;2.92;1.75;;;3.30;99.90;;;;;;5058989;28;20208;-87
2021/04/07 03:40:56;;;;;;;5.50;2.10;;;3.30;99.90;;;;;;5052796;28;20186;-87
2021/04/07 03:43:23;;;;;;;4.50;2.22;;;3.30;99.90;;;;;;5052556;28;20189;-89
2021/04/07 03:45:50;;;;;;;3.88;1.77;;;3.30;99.90;;;;;;5053337;28;20284;-91
2021/04/07 03:48:18;;;;;;;5.00;2.60;;;3.30;99.90;;;;;;5052915;28;20296;-90
2021/04/07 03:50:45;;;;;;;2.88;2.50;;;3.30;99.90;;;;;;5053288;28;20257;-89
2021/04/07 03:53:12;;;;;;;3.63;2.08;;;3.30;99.90;;;;;;5052938;28;20225;-92
2021/04/07 03:55:39;;;;;;;3.50;2.40;;;3.30;99.90;;;;;;5053243;28;20619;-92
2021/04/07 03:58:06;;;;;;;5.18;3.05;;;3.30;99.90;;;;;;5052992;28;20659;-92
2021/04/07 04:00:33;;;;;;;6.32;2.88;;;3.40;99.90;;;;;;5052424;28;20289;-85
2021/04/07 04:02:59;;;;;;;4.57;2.55;;;3.40;99.90;;;;;;5052147;28;20266;-86
2021/04/07 04:05:26;;;;;;;5.05;2.60;;;3.40;99.90;;;;;;5052228;28;20225;-83
2021/04/07 04:07:52;;;;;;;4.10;2.17;;;3.50;99.90;;;;;;5052332;28;20202;-85
2021/04/07 04:10:19;;;;;;;3.55;2.72;;;3.50;99.90;;;;;;5052393;28;20613;-88
2021/04/07 04:12:45;;;;;;;4.38;2.55;;;3.50;99.90;;;;;;5052212;28;20194;-86
2021/04/07 04:15:13;;;;;;;4.53;2.42;;;3.50;99.90;;;;;;5052224;28;20284;-87
2021/04/07 04:17:41;;;;;;;6.90;3.17;;;3.50;99.90;;;;;;5051968;28;20193;-87
2021/04/07 04:20:08;;;;;;;4.38;2.70;;;3.50;99.90;;;;;;5054913;28;20190;-83
2021/04/07 04:22:34;;;;;;;7.13;3.00;;;3.50;99.90;;;;;;5055714;28;20193;-86
2021/04/07 04:25:00;;;;;;;2.95;2.53;;;3.50;99.90;;;;;;5055670;28;20683;-86
2021/04/07 04:27:27;;;;;;;5.05;2.58;;;3.50;99.90;;;;;;5055674;28;20280;-86
2021/04/07 04:29:53;;;;;;;4.93;2.50;;;3.50;99.90;;;;;;5055570;28;20221;-86
2021/04/07 04:32:20;;;;;;;6.32;2.95;;;3.50;99.90;;;;;;5055557;28;20190;-87
2021/04/07 04:34:46;;;;;;;3.10;2.80;;;3.50;99.90;;;;;;5055438;28;20197;-88
2021/04/07 04:37:12;;;;;;;5.70;2.85;;;3.50;99.90;;;;;;5055796;28;20633;-87
2021/04/07 04:39:39;;;;;;;7.07;2.90;;;3.50;99.90;;;;;;5055574;28;20518;-84
2021/04/07 04:42:05;;;;;;;5.38;3.60;;;3.50;99.90;;;;;;5055443;28;20190;-85
2021/04/07 04:44:31;;;;;;;7.93;5.43;;;3.50;99.90;;;;;;5055258;28;20197;-85
2021/04/07 04:46:57;;;;;;;5.57;4.38;;;3.60;99.90;;;;;;5066866;28;20189;-85
2021/04/07 04:49:24;;;;;;;3.80;3.00;;;3.60;99.90;;;;;;5061137;28;20245;-85
2021/04/07 04:51:50;;;;;;;6.00;2.92;;;3.60;99.90;;;;;;5055295;28;20194;-84
2021/04/07 04:54:17;;;;;;;8.52;2.60;;;3.70;99.90;;;;;;5055013;28;20661;-84
2021/04/07 04:56:43;;;;;;;3.85;2.40;;;3.60;99.90;;;;;;5055194;28;20190;-85
2021/04/07 04:59:09;;;;;;;7.15;3.22;;;3.60;99.90;;;;;;5054932;28;20216;-85
2021/04/07 05:01:36;;;;;;;10.27;2.60;;;3.60;99.90;;;;;;5055102;28;20604;-84
2021/04/07 05:04:05;;;;;;;5.35;3.08;;;3.50;99.90;;;;;;5054713;28;20661;-84
2021/04/07 05:06:33;;;;;;;3.72;2.60;;;3.60;99.90;;;;;;5055143;28;20194;-84
2021/04/07 05:08:59;;;;;;;7.72;2.70;;;3.60;99.90;;;;;;5054578;28;20701;-84
2021/04/07 05:11:25;;;;;;;3.33;3.03;;;3.60;99.90;;;;;;5055003;28;20553;-84
2021/04/07 05:13:51;;;;;;;3.05;2.75;;;3.60;99.90;;;;;;5054621;28;20197;-85
2021/04/07 05:16:17;;;;;;;4.00;2.25;;;3.60;99.90;;;;;;5054702;28;20304;-85
2021/04/07 05:18:43;;;;;;;9.20;3.22;;;3.60;99.90;;;;;;5054904;28;20260;-86
2021/04/07 05:21:10;;;;;;;6.20;2.60;;;3.70;99.90;;;;;;5054861;28;20194;-86
2021/04/07 05:23:37;;;;;;;7.00;3.00;;;3.60;99.90;;;;;;5054679;28;20190;-87
2021/04/07 05:26:03;;;;;;;2.78;1.90;;;3.60;99.90;;;;;;5054628;28;20285;-85
2021/04/07 05:28:30;;;;;;;7.13;2.80;;;3.70;99.90;;;;;;5054465;28;20214;-87
2021/04/07 05:31:00;;;;;;;6.70;3.00;;;3.70;99.90;;;;;;5053692;28;20714;-86
2021/04/07 05:33:27;;;;;;;5.55;2.70;;;3.70;99.90;;;;;;5054494;28;20714;-87
2021/04/07 05:35:55;;;;;;;6.60;2.70;;;3.90;99.90;;;;;;5054760;28;20186;-86
2021/04/07 05:38:22;;;;;;;6.38;3.00;;;3.90;99.90;;;;;;5054446;28;20232;-86
2021/04/07 05:40:49;;;;;;;2.90;2.33;;;4.00;99.90;;;;;;5054509;28;20197;-86
2021/04/07 05:43:15;;;;;;;3.85;2.28;;;4.00;99.90;;;;;;5054210;28;20237;-85
2021/04/07 05:45:41;;;;;;;5.25;2.78;;;4.00;99.90;;;;;;5054151;28;20202;-85
2021/04/07 05:48:08;;;;;;;5.50;2.70;;;4.00;99.90;;;;;;5053745;28;20672;-84
2021/04/07 05:50:36;;;;;;;4.95;3.05;;;4.00;99.90;;;;;;5054331;28;20194;-84
2021/04/07 05:53:02;;;;;;;9.85;2.67;;;4.00;99.90;;;;;;5054007;28;20194;-84
2021/04/07 05:55:29;;;;;;;7.25;2.42;;;4.00;99.90;;;;;;5053879;28;20268;-84
2021/04/07 05:58:00;;;;;;;4.05;2.72;;;4.00;99.90;;;;;;5053916;28;20225;-83
2021/04/07 06:00:31;;;;;;;10.52;2.55;;;4.00;99.90;;;;;;5052290;28;20194;-83
2021/04/07 06:02:58;;;;;;;6.25;2.60;;;4.00;99.90;;;;;;5034043;28;20646;-84
2021/04/07 06:05:26;;;;;;;5.65;2.78;;;4.00;99.90;;;;;;5033944;28;20190;-84
2021/04/07 06:07:53;;;;;;;2.28;2.05;;;4.00;99.90;;;;;;5033823;28;20202;-84
2021/04/07 06:10:19;;;;;;;6.00;2.65;;;4.00;99.90;;;;;;5033729;28;20195;-84
2021/04/07 06:12:45;;;;;;;10.40;2.60;;;4.10;99.90;;;;;;5033653;28;20721;-84
2021/04/07 06:15:13;;;;;;;4.97;2.90;;;4.20;99.90;;;;;;5033845;28;20218;-85
2021/04/07 06:17:41;;;;;;;7.75;2.60;;;4.20;99.90;;;;;;5033883;28;20276;-85
2021/04/07 06:20:09;;;;;;;6.40;2.63;;;4.30;99.90;;;;;;5033632;28;20302;-85
2021/04/07 06:22:35;;;;;;;7.03;2.47;;;4.40;99.90;;;;;;5033615;28;20278;-84
2021/04/07 06:25:01;;;;;;;5.85;1.95;;;4.50;99.90;;;;;;5033319;28;20237;-84
2021/04/07 06:27:28;;;;;;;5.78;2.75;;;4.60;99.90;;;;;;5033441;28;20233;-86
2021/04/07 06:29:54;;;;;;;3.22;2.45;;;4.70;99.90;;;;;;5033394;28;20585;-88
2021/04/07 06:32:21;;;;;;;11.50;2.92;;;4.80;99.90;;;;;;5033405;28;20281;-87
2021/04/07 06:34:47;;;;;;;6.38;2.70;;;4.90;99.90;;;;;;5033329;28;20194;-86
2021/04/07 06:37:13;;;;;;;6.20;3.38;;;5.00;99.90;;;;;;5033545;28;20186;-87
2021/04/07 06:39:39;;;;;;;4.22;2.10;;;5.00;99.90;;;;;;5033176;28;20241;-87
2021/04/07 06:42:06;;;;;;;3.90;2.45;;;5.10;99.90;;;;;;5033408;28;20191;-86
2021/04/07 06:44:32;;;;;;;3.70;2.40;;;5.10;99.90;;;;;;5033135;28;20716;-88
2021/04/07 06:46:59;;;;;;;7.43;3.10;;;5.20;99.90;;;;;;5033409;28;20194;-88
2021/04/07 06:49:27;;;;;;;5.32;2.58;;;5.40;99.90;;;;;;5046740;28;20655;-87
2021/04/07 06:51:55;;;;;;;6.40;3.33;;;5.50;99.90;;;;;;5053026;28;20201;-87
2021/04/07 06:54:22;;;;;;;5.90;2.75;;;5.50;99.90;;;;;;5052995;28;20201;-86
2021/04/07 06:56:49;;;;;;;7.30;2.03;;;5.50;99.90;;;;;;5052972;28;20645;-85
2021/04/07 06:59:15;;;;;;;3.08;2.33;;;5.50;99.90;;;;;;5052936;28;20194;-85
2021/04/07 07:01:42;;;;;;;8.88;2.92;;;5.40;99.90;;;;;;5049989;28;20248;-83
2021/04/07 07:04:08;;;;;;;6.50;2.70;;;5.50;99.90;;;;;;5048040;28;20194;-83
2021/04/07 07:06:35;;;;;;;5.68;2.70;;;5.40;99.90;;;;;;5052509;28;20277;-82
2021/04/07 07:09:12;;;;;;;8.65;2.60;;;5.40;99.90;;;;;;5051923;28;20248;-86
2021/04/07 07:11:39;;;;;;;5.95;2.83;;;5.40;99.90;;;;;;5052176;28;20653;-86
2021/04/07 07:14:05;;;;;;;6.80;2.95;;;5.30;99.90;;;;;;5052467;28;20248;-86
2021/04/07 07:16:31;;;;;;;3.08;2.47;;;5.30;99.90;;;;;;5052414;28;20193;-86
2021/04/07 07:18:58;;;;;;;4.90;2.78;;;5.30;99.90;;;;;;5052103;28;20199;-86
2021/04/07 07:21:25;;;;;;;7.45;3.03;;;5.40;99.90;;;;;;5052346;28;20259;-87
2021/04/07 07:23:52;;;;;;;4.10;2.53;;;5.40;99.90;;;;;;5052332;28;20205;-87
2021/04/07 07:26:20;;;;;;;13.35;3.95;;;5.30;99.90;;;;;;5052431;28;20392;-86
2021/04/07 07:28:50;;;;;;;5.35;2.67;;;5.10;99.90;;;;;;5052376;28;20684;-86
2021/04/07 07:31:21;;;;;;;6.78;3.05;;;4.80;99.90;;;;;;5052217;28;20538;-85
2021/04/07 07:33:47;;;;;;;5.22;3.40;;;4.60;99.90;;;;;;5052053;28;20215;-85
2021/04/07 07:36:14;;;;;;;7.93;3.55;;;4.60;99.90;;;;;;5052160;28;20649;-85
2021/04/07 07:38:45;;;;;;;6.22;3.03;;;4.70;99.90;;;;;;5052511;28;20186;-84
2021/04/07 07:41:12;;;;;;;3.78;3.40;;;5.00;99.90;;;;;;5052218;28;20288;-84
2021/04/07 07:43:41;;;;;;;5.88;3.85;;;5.10;99.90;;;;;;5052143;28;20641;-86
2021/04/07 07:46:10;;;;;;;8.32;4.05;;;5.30;99.90;;;;;;5052027;28;20182;-86
2021/04/07 07:48:38;;;;;;;5.80;3.50;;;5.50;99.90;;;;;;5051866;28;20210;-85
2021/04/07 07:51:13;;;;;;;5.40;3.38;;;5.70;99.90;;;;;;5052113;28;20237;-84
2021/04/07 07:53:42;;;;;;;8.30;4.28;;;6.00;99.90;;;;;;5046269;28;20224;-86
2021/04/07 07:56:08;;;;;;;5.93;2.80;;;6.10;99.90;;;;;;5055578;28;20579;-84
2021/04/07 07:58:41;;;;;;;11.85;3.97;;;6.20;99.90;;;;;;5055818;28;20534;-82
2021/04/07 08:01:10;;;;;;;6.07;3.10;;;6.20;99.90;;;;;;5049566;28;20194;-84
2021/04/07 08:03:37;;;;;;;8.65;3.65;;;6.30;99.90;;;;;;5053021;28;20653;-84
2021/04/07 08:06:03;;;;;;;11.25;3.70;;;6.40;99.90;;;;;;5041487;28;20186;-83
2021/04/07 08:08:29;;;;;;;7.45;3.22;;;6.30;99.90;;;;;;5036067;28;20234;-84
2021/04/07 08:10:56;;;;;;;7.32;2.88;;;6.40;99.90;;;;;;5035731;28;20241;-86
2021/04/07 08:13:29;;;;;;;5.10;2.10;;;6.30;99.90;;;;;;5035917;28;20190;-87
2021/04/07 08:15:57;;;;;;;4.65;2.35;;;6.40;99.90;;;;;;5036169;28;20218;-87
2021/04/07 08:18:24;;;;;;;6.28;2.75;;;6.40;99.90;;;;;;5035808;28;20236;-87
2021/04/07 08:20:51;;;;;;;6.28;2.75;;;6.50;99.90;;;;;;5035871;28;20225;-87
2021/04/07 08:23:18;;;;;;;6.15;2.80;;;6.50;99.90;;;;;;5035917;28;20195;-90
2021/04/07 08:25:50;;;;;;;10.60;3.33;;;6.50;99.90;;;;;;5035642;28;20190;-91
2021/04/07 08:28:17;;;;;;;6.13;2.40;;;6.60;99.90;;;;;;5036105;28;20182;-89
2021/04/07 08:30:44;;;;;;;6.00;2.20;;;6.60;99.90;;;;;;5035722;28;20190;-89
2021/04/07 08:33:11;;;;;;;6.32;2.72;;;6.60;99.90;;;;;;5035589;28;20285;-90
2021/04/07 08:35:38;;;;;;;5.75;2.40;;;6.70;99.90;;;;;;5035573;28;20249;-90
2021/04/07 08:38:06;;;;;;;9.63;2.67;;;6.80;99.90;;;;;;5035591;28;20569;-89
2021/04/07 08:40:41;;;;;;;6.93;2.28;;;7.00;99.90;;;;;;5035238;28;20248;-90
2021/04/07 08:43:09;;;;;;;4.30;2.58;;;7.10;99.90;;;;;;5035672;28;20561;-90
2021/04/07 08:45:44;;;;;;;6.30;2.47;;;7.30;99.90;;;;;;5035521;28;20241;-87
2021/04/07 08:48:20;;;;;;;4.72;2.17;;;7.60;99.90;;;;;;5038854;28;20182;-87
2021/04/07 08:50:48;;;;;;;6.65;2.20;;;7.50;99.90;;;;;;5055405;28;20190;-88
2021/04/07 08:53:15;;;;;;;5.75;2.50;;;7.60;99.90;;;;;;5055068;28;20190;-88
2021/04/07 08:55:43;;;;;;;5.38;2.20;;;7.80;99.90;;;;;;5054972;28;20635;-88
2021/04/07 08:58:11;;;;;;;3.25;2.13;;;7.90;99.90;;;;;;5055265;28;20222;-89
2021/04/07 09:00:38;;;;;;;9.43;3.13;;;8.10;99.90;;;;;;5054284;28;20311;-89
2021/04/07 09:03:14;;;;;;;4.55;2.25;;;8.20;99.90;;;;;;5055162;28;20186;-88
2021/04/07 09:05:43;;;;;;;6.85;2.78;;;8.20;99.90;;;;;;5054631;28;20276;-86
2021/04/07 09:08:09;;;;;;;4.80;2.58;;;8.50;99.90;;;;;;5054757;28;20197;-86
2021/04/07 09:10:41;;;;;;;6.65;2.20;;;8.40;99.90;;;;;;5054900;28;20186;-85
2021/04/07 09:13:07;;;;;;;5.93;2.53;;;8.50;99.90;;;;;;5051167;28;20653;-86
2021/04/07 09:15:34;;;;;;;5.00;1.85;;;8.50;99.90;;;;;;5037418;28;20277;-85
2021/04/07 09:18:00;;;;;;;3.30;2.13;;;8.50;99.90;;;;;;5051461;28;20193;-85
2021/04/07 09:20:34;;;;;;;8.25;2.63;;;8.60;99.90;;;;;;5054761;28;20252;-85
2021/04/07 09:23:24;;;;;;;5.18;2.10;;;8.40;99.90;;;;;;5054328;28;20194;-86
2021/04/07 09:25:52;;;;;;;6.35;1.95;;;8.30;99.90;;;;;;5027882;28;20587;-89
2021/04/07 09:28:31;;;;;;;4.22;2.10;;;8.30;99.90;;;;;;5054693;28;20189;-89
2021/04/07 09:31:05;;;;;;;6.47;2.28;;;8.40;99.90;;;;;;5054950;28;20190;-88
2021/04/07 09:33:35;;;;;;;3.72;1.80;;;8.30;99.90;;;;;;5054672;28;20224;-90
2021/04/07 09:36:03;;;;;;;7.13;2.70;;;8.30;99.90;;;;;;5054572;28;20209;-90
2021/04/07 09:38:31;;;;;;;7.77;2.30;;;8.30;99.90;;;;;;5054448;28;20472;-88
2021/04/07 09:41:05;;;;;;;3.25;1.77;;;8.20;99.90;;;;;;5054421;28;20448;-89
2021/04/07 09:43:32;;;;;;;3.50;1.60;;;8.10;99.90;;;;;;5054440;28;20193;-89
2021/04/07 09:45:58;;;;;;;4.25;1.60;;;8.10;99.90;;;;;;5041121;28;20190;-89
2021/04/07 09:48:42;;;;;;;6.53;2.15;;;8.20;99.90;;;;;;5052945;28;20706;-90
2021/04/07 09:51:31;;;;;;;4.90;1.40;;;8.30;99.90;;;;;;5054344;28;20209;-92
2021/04/07 09:54:15;;;;;;;6.88;2.05;;;8.60;99.90;;;;;;5037138;28;20186;-89
2021/04/07 09:56:58;;;;;;;8.00;3.35;;;8.70;99.90;;;;;;5041762;28;20194;-89
2021/04/07 09:59:39;;;;;;;4.32;2.17;;;8.70;99.90;;;;;;5050825;28;20277;-90
2021/04/07 10:02:06;;;;;;;8.57;2.65;;;8.70;99.90;;;;;;5039701;28;20201;-89
2021/04/07 10:04:34;;;;;;;9.53;2.67;;;8.70;99.90;;;;;;5054316;28;20232;-88
2021/04/07 10:07:20;;;;;;;6.60;2.47;;;8.70;99.90;;;;;;5051803;28;20456;-90
2021/04/07 10:09:47;;;;;;;2.95;2.17;;;8.90;99.90;;;;;;5053157;28;20206;-87
2021/04/07 10:12:14;;;;;;;2.40;1.75;;;8.90;99.90;;;;;;5053396;28;20220;-88
2021/04/07 10:14:47;;;;;;;5.70;2.07;;;9.20;99.90;;;;;;5053761;28;20636;-88
2021/04/07 10:17:14;;;;;;;6.50;2.63;;;9.30;99.90;;;;;;5052950;28;20480;-90
2021/04/07 10:19:41;;;;;;;5.70;1.93;;;9.30;99.90;;;;;;5053751;28;20922;-87
2021/04/07 10:22:14;;;;;;;2.87;2.00;;;9.50;99.90;;;;;;5053211;28;20488;-87
2021/04/07 10:24:45;;;;;;;4.90;2.10;;;9.40;99.90;;;;;;5053263;28;20531;-88
2021/04/07 10:27:18;;;;;;;6.18;2.13;;;9.20;99.90;;;;;;5053471;28;20447;-88
2021/04/07 10:29:44;;;;;;;9.70;1.97;;;9.00;99.90;;;;;;5050058;28;20232;-87
2021/04/07 10:32:14;;;;;;;2.77;1.63;;;8.90;99.90;;;;;;5052835;28;20480;-87
2021/04/07 10:34:41;;;;;;;3.28;1.70;;;8.80;99.90;;;;;;5052792;28;20502;-87
2021/04/07 10:37:07;;;;;;;5.10;2.40;;;8.80;99.90;;;;;;5052576;28;20190;-88
2021/04/07 10:39:37;;;;;;;5.47;1.80;;;8.80;99.90;;;;;;5052336;28;20456;-87
2021/04/07 10:42:08;;;;;;;4.00;1.70;;;8.80;99.90;;;;;;5053011;28;20449;-88
2021/04/07 10:44:35;;;;;;;2.80;2.13;;;8.90;99.90;;;;;;5052704;28;20868;-90
2021/04/07 10:47:01;;;;;;;5.38;1.90;;;8.80;99.90;;;;;;5046201;28;20444;-90
2021/04/07 10:49:28;;;;;;;3.72;1.88;;;8.60;99.90;;;;;;5053329;28;20232;-89
2021/04/07 10:51:59;;;;;;;3.85;1.80;;;8.50;99.90;;;;;;5052982;28;20186;-87
2021/04/07 10:54:26;;;;;;;6.30;2.90;;;8.40;99.90;;;;;;5044487;28;20213;-82
2021/04/07 10:56:59;;;;;;;3.60;2.63;;;8.40;99.90;;;;;;5042239;28;20498;-82
2021/04/07 10:59:29;;;;;;;2.70;1.60;;;8.50;99.90;;;;;;5047445;28;20265;-82
2021/04/07 11:01:55;;;;;;;3.60;2.00;;;8.70;99.90;;;;;;5041101;28;20208;-80
2021/04/07 11:04:22;;;;;;;3.53;1.87;;;8.90;99.90;;;;;;5051717;28;20186;-85
2021/04/07 11:06:51;;;;;;;3.83;2.10;;;8.80;99.90;;;;;;5051629;28;20440;-85
2021/04/07 11:09:24;;;;;;;2.65;1.45;;;8.80;99.90;;;;;;5052593;28;20308;-86
2021/04/07 11:11:50;;;;;;;11.63;2.53;;;8.90;99.90;;;;;;5051908;28;20194;-87
2021/04/07 11:14:16;;;;;;;2.65;1.38;;;8.80;99.90;;;;;;5052844;28;20451;-86
2021/04/07 11:16:43;;;;;;;4.63;2.63;;;8.80;99.90;;;;;;5052306;28;20684;-86
2021/04/07 11:19:14;;;;;;;3.97;1.85;;;9.00;99.90;;;;;;5052678;28;20280;-86
2021/04/07 11:21:40;;;;;;;5.57;2.03;;;9.00;99.90;;;;;;5052767;28;20612;-86
2021/04/07 11:24:07;;;;;;;2.00;1.60;;;9.10;99.90;;;;;;5052228;28;20186;-87
2021/04/07 11:26:33;;;;;;;2.75;1.30;;;9.00;99.90;;;;;;5052457;28;20484;-86
2021/04/07 11:28:59;;;;;;;1.83;1.50;;;9.10;99.90;;;;;;5053632;28;20669;-86
2021/04/07 11:31:30;;;;;;;2.20;1.60;;;9.20;99.90;;;;;;5056278;28;20467;-86
2021/04/07 11:33:59;;;;;;;2.93;1.40;;;9.30;99.90;;;;;;5056558;28;20185;-86
2021/04/07 11:36:44;;;;;;;3.43;1.50;;;9.20;99.90;;;;;;5056527;28;20448;-86
2021/04/07 11:39:15;;;;;;;2.13;1.20;;;9.20;99.90;;;;;;5056342;28;20451;-86
2021/04/07 11:41:54;;;;;;;1.90;1.20;;;9.20;99.90;;;;;;5057069;28;20449;-86
2021/04/07 11:44:28;;;;;;;2.70;1.50;;;9.00;99.90;;;;;;5057065;28;20452;-86
2021/04/07 11:46:54;;;;;;;2.20;1.40;;;9.10;99.90;;;;;;5057202;28;20448;-86
2021/04/07 11:49:21;;;;;;;4.43;1.63;;;9.20;99.90;;;;;;5056674;28;20499;-85
2021/04/07 11:51:48;;;;;;;2.25;1.60;;;9.20;99.90;;;;;;5056572;28;20459;-85
2021/04/07 11:54:15;;;;;;;2.80;2.60;;;9.40;99.90;;;;;;5056275;28;20190;-86
2021/04/07 11:56:43;;;;;;;2.97;1.50;;;9.50;99.90;;;;;;5055783;28;20450;-86
2021/04/07 11:59:10;;;;;;;2.27;1.27;;;9.50;99.90;;;;;;5054494;28;20512;-86
2021/04/07 12:01:36;;;;;;;2.40;1.50;;;9.60;99.90;;;;;;5053288;28;20476;-87
2021/04/07 12:04:03;;;;;;;5.03;1.37;;;9.70;99.90;;;;;;5055817;28;20962;-84
2021/04/07 12:06:30;;;;;;;2.03;1.10;;;9.50;99.90;;;;;;5052795;28;20819;-86
2021/04/07 12:08:56;;;;;;;1.67;1.33;;;9.40;99.90;;;;;;5055854;28;20218;-85
2021/04/07 12:11:22;;;;;;;5.53;1.77;;;9.20;99.90;;;;;;5055922;28;20789;-86
2021/04/07 12:13:48;;;;;;;1.15;1.00;;;9.20;99.90;;;;;;5056086;28;20448;-85
2021/04/07 12:16:14;;;;;;;3.13;1.10;;;9.00;99.90;;;;;;5055676;28;20198;-85
2021/04/07 12:18:40;;;;;;;1.50;1.20;;;9.00;99.90;;;;;;5053569;28;20440;-85
2021/04/07 12:21:07;;;;;;;2.57;1.03;;;8.90;99.90;;;;;;5055282;28;20486;-84
2021/04/07 12:23:34;;;;;;;2.28;1.00;;;8.90;99.90;;;;;;5055093;28;20452;-86
2021/04/07 12:26:00;;;;;;;3.20;1.17;;;9.20;99.90;;;;;;5054698;28;20264;-85
2021/04/07 12:28:26;;;;;;;2.60;1.03;;;9.30;99.90;;;;;;5054002;28;20444;-82
2021/04/07 12:30:55;;;;;;;6.30;2.50;;;9.30;99.90;;;;;;5052698;28;20543;-82
2021/04/07 12:33:26;;;;;;;2.70;1.10;;;9.40;99.90;;;;;;5052524;28;20468;-81
2021/04/07 12:36:06;;;;;;;3.00;1.10;;;9.40;99.90;;;;;;5055656;28;20856;-80
2021/04/07 12:38:34;;;;;;;5.50;1.20;;;9.60;99.90;;;;;;5039967;28;20495;-80
2021/04/07 12:41:04;;;;;;;1.00;0.90;;;9.90;99.90;;;;;;5048226;28;20804;-83
2021/04/07 12:43:30;;;;;;;1.97;1.03;;;9.90;99.90;;;;;;5052191;28;20447;-82
2021/04/07 12:45:56;;;;;;;1.30;1.20;;;9.80;99.90;;;;;;5047556;28;20580;-83
2021/04/07 12:48:23;;;;;;;2.90;1.20;;;9.80;99.90;;;;;;5054467;28;20494;-82
2021/04/07 12:50:52;;;;;;;5.33;1.40;;;9.80;99.90;;;;;;5054531;28;20547;-82
2021/04/07 12:53:18;;;;;;;3.33;1.00;;;9.90;99.90;;;;;;5054958;28;20444;-82
2021/04/07 12:55:46;;;;;;;2.27;1.50;;;9.90;99.90;;;;;;5054846;28;20491;-83
2021/04/07 12:58:12;;;;;;;2.50;1.20;;;9.90;99.90;;;;;;5054688;28;20447;-82
2021/04/07 13:00:38;;;;;;;2.37;1.80;;;9.90;99.90;;;;;;5049956;28;20452;-83